This is the latest recevied weather packets stored in our database for station/object DM3DP. If no packets are shown the sender has not sent any weather packets the latest 10 day(s).
| Time | Temp. | Humidity | Pressure | Rain* | Wind** | Luminosity | Snow |
|---|---|---|---|---|---|---|---|
| 1777703074 | 15.56° C | 63% | 1018.3 hPa | 0 mm | - | 494 W/m² | - |
| 1777702743 | 15.56° C | 63% | 1018.3 hPa | 0 mm | - | 463 W/m² | - |
| 1777702413 | 15.56° C | 63% | 1018.4 hPa | 0 mm | - | 449 W/m² | - |
| 1777702083 | 15.56° C | 63% | 1018.5 hPa | 0 mm | - | 503 W/m² | - |
| 1777701753 | 15.56° C | 63% | 1018.6 hPa | 0 mm | - | 484 W/m² | - |
| 1777701423 | 15.56° C | 64% | 1018.6 hPa | 0 mm | - | 463 W/m² | - |
| 1777701094 | 15.56° C | 62% | 1018.6 hPa | 0 mm | - | 431 W/m² | - |
| 1777700764 | 16.11° C | 62% | 1018.6 hPa | 0 mm | - | 433 W/m² | - |
| 1777700434 | 15.56° C | 66% | 1018.5 hPa | 0 mm | - | 331 W/m² | - |
| 1777700103 | 14.44° C | 65% | 1018.5 hPa | 0 mm | - | 330 W/m² | - |
| 1777699774 | 14.44° C | 65% | 1018.3 hPa | 0 mm | - | 313 W/m² | - |
| 1777699444 | 14.44° C | 65% | 1018.3 hPa | 0 mm | - | 286 W/m² | - |
| 1777699113 | 13.33° C | 70% | 1018.3 hPa | 0 mm | - | 257 W/m² | - |
| 1777698783 | 10.56° C | 74% | 1018.3 hPa | 0 mm | - | 232 W/m² | - |
| 1777698454 | 10.56° C | 75% | 1018.2 hPa | 0 mm | - | 184 W/m² | - |
| 1777698123 | 10.56° C | 75% | 1018.2 hPa | 0 mm | - | 36 W/m² | - |
| 1777697793 | 10° C | 75% | 1018.2 hPa | 0 mm | - | 34 W/m² | - |
| 1777697463 | 10° C | 75% | 1018.2 hPa | 0 mm | - | 27 W/m² | - |
| 1777697134 | 10° C | 75% | 1018.2 hPa | 0 mm | - | 21 W/m² | - |
| 1777696804 | 10° C | 76% | 1018.2 hPa | 0 mm | - | 17 W/m² | - |
| 1777696474 | 9.44° C | 76% | 1018.2 hPa | 0 mm | - | 15 W/m² | - |
| 1777696143 | 9.44° C | 76% | 1018.2 hPa | 0 mm | - | 12 W/m² | - |
| 1777695814 | 9.44° C | 77% | 1018.3 hPa | 0 mm | - | 9 W/m² | - |
| 1777695484 | 9.44° C | 77% | 1018.3 hPa | 0 mm | - | 7 W/m² | - |
| 1777695154 | 9.44° C | 77% | 1018.3 hPa | 0 mm | - | 6 W/m² | - |
* Rain latest hour (hover to see other rain measurements)
** Current wind speed in m/s (hover to see current wind gust speed)